sensor_id;sensor_type;location;lat;lon;timestamp;pressure;altitude;pressure_sealevel;temperature
65569;BMP180;52211;50.154;8.682;2023-12-07T08:37:16;100538.00;;;2.10
65569;BMP180;52211;50.154;8.682;2023-12-07T08:39:43;100533.00;;;3.00
65569;BMP180;52211;50.154;8.682;2023-12-07T08:42:10;100537.00;;;3.80
65569;BMP180;52211;50.154;8.682;2023-12-07T08:44:38;100523.00;;;4.30
65569;BMP180;52211;50.154;8.682;2023-12-07T08:47:07;100533.00;;;4.70
65569;BMP180;52211;50.154;8.682;2023-12-07T08:49:39;100523.00;;;5.10
65569;BMP180;52211;50.154;8.682;2023-12-07T08:52:08;100527.00;;;5.30
65569;BMP180;52211;50.154;8.682;2023-12-07T08:54:57;100526.00;;;5.50
65569;BMP180;52211;50.154;8.682;2023-12-07T08:57:24;100531.00;;;5.70
65569;BMP180;52211;50.154;8.682;2023-12-07T08:59:53;100534.00;;;5.90
65569;BMP180;52211;50.154;8.682;2023-12-07T09:02:21;100530.00;;;6.00
65569;BMP180;52211;50.154;8.682;2023-12-07T09:05:08;100536.00;;;6.20
65569;BMP180;52211;50.154;8.682;2023-12-07T09:07:35;100535.00;;;6.30
65569;BMP180;52211;50.154;8.682;2023-12-07T09:10:08;100537.00;;;6.40
65569;BMP180;52211;50.154;8.682;2023-12-07T09:12:36;100545.00;;;6.50
65569;BMP180;52211;50.154;8.682;2023-12-07T09:15:07;100540.00;;;6.60
65569;BMP180;52211;50.154;8.682;2023-12-07T09:17:35;100545.00;;;6.70
65569;BMP180;52211;50.154;8.682;2023-12-07T09:20:12;100542.00;;;6.80
65569;BMP180;52211;50.154;8.682;2023-12-07T09:22:45;100538.00;;;6.90
65569;BMP180;52211;50.154;8.682;2023-12-07T09:25:16;100532.00;;;7.00
65569;BMP180;52211;50.154;8.682;2023-12-07T09:27:48;100547.00;;;7.10
65569;BMP180;52211;50.154;8.682;2023-12-07T09:30:17;100533.00;;;7.10
65569;BMP180;52211;50.154;8.682;2023-12-07T09:32:44;100534.00;;;7.20
65569;BMP180;52211;50.154;8.682;2023-12-07T09:35:12;100532.00;;;7.30
65569;BMP180;52211;50.154;8.682;2023-12-07T09:37:46;100540.00;;;7.40
65569;BMP180;52211;50.154;8.682;2023-12-07T09:40:17;100536.00;;;7.50
65569;BMP180;52211;50.154;8.682;2023-12-07T09:42:49;100544.00;;;7.60
65569;BMP180;52211;50.154;8.682;2023-12-07T09:45:21;100545.00;;;7.60
65569;BMP180;52211;50.154;8.682;2023-12-07T09:47:52;100556.00;;;7.70
65569;BMP180;52211;50.154;8.682;2023-12-07T09:50:29;100556.00;;;7.80
65569;BMP180;52211;50.154;8.682;2023-12-07T09:52:59;100554.00;;;7.80
65569;BMP180;52211;50.154;8.682;2023-12-07T09:55:35;100553.00;;;7.90
65569;BMP180;52211;50.154;8.682;2023-12-07T09:58:07;100558.00;;;8.00
65569;BMP180;52211;50.154;8.682;2023-12-07T10:00:37;100553.00;;;8.00
65569;BMP180;52211;50.154;8.682;2023-12-07T10:03:06;100555.00;;;8.00
65569;BMP180;52211;50.154;8.682;2023-12-07T10:06:00;100554.00;;;8.00
65569;BMP180;52211;50.154;8.682;2023-12-07T10:08:34;100554.00;;;8.10
65569;BMP180;52211;50.154;8.682;2023-12-07T10:11:08;100546.00;;;8.10
65569;BMP180;52211;50.154;8.682;2023-12-07T10:13:36;100538.00;;;8.20
65569;BMP180;52211;50.154;8.682;2023-12-07T10:16:13;100537.00;;;8.20
65569;BMP180;52211;50.154;8.682;2023-12-07T10:18:48;100529.00;;;8.20
65569;BMP180;52211;50.154;8.682;2023-12-07T10:21:32;100523.00;;;8.20
65569;BMP180;52211;50.154;8.682;2023-12-07T10:24:01;100518.00;;;8.20
65569;BMP180;52211;50.154;8.682;2023-12-07T10:26:37;100511.00;;;8.30
65569;BMP180;52211;50.154;8.682;2023-12-07T10:29:06;100507.00;;;8.30
65569;BMP180;52211;50.154;8.682;2023-12-07T10:31:43;100511.00;;;8.40
65569;BMP180;52211;50.154;8.682;2023-12-07T10:34:18;100500.00;;;8.40
65569;BMP180;52211;50.154;8.682;2023-12-07T10:36:47;100494.00;;;8.40
65569;BMP180;52211;50.154;8.682;2023-12-07T10:39:17;100487.00;;;8.40
65569;BMP180;52211;50.154;8.682;2023-12-07T10:42:01;100499.00;;;8.40
65569;BMP180;52211;50.154;8.682;2023-12-07T10:44:30;100502.00;;;8.50
65569;BMP180;52211;50.154;8.682;2023-12-07T10:47:02;100498.00;;;8.50
65569;BMP180;52211;50.154;8.682;2023-12-07T10:49:32;100493.00;;;8.50
65569;BMP180;52211;50.154;8.682;2023-12-07T10:52:07;100494.00;;;8.50
65569;BMP180;52211;50.154;8.682;2023-12-07T10:54:57;100498.00;;;8.60
65569;BMP180;52211;50.154;8.682;2023-12-07T10:57:35;100494.00;;;8.60
65569;BMP180;52211;50.154;8.682;2023-12-07T11:00:06;100490.00;;;8.60
65569;BMP180;52211;50.154;8.682;2023-12-07T11:02:34;100478.00;;;8.60
65569;BMP180;52211;50.154;8.682;2023-12-07T11:05:02;100484.00;;;8.60
65569;BMP180;52211;50.154;8.682;2023-12-07T11:08:03;100485.00;;;8.70
65569;BMP180;52211;50.154;8.682;2023-12-07T11:11:12;100477.00;;;8.70
65569;BMP180;52211;50.154;8.682;2023-12-07T11:13:52;100475.00;;;8.70
65569;BMP180;52211;50.154;8.682;2023-12-07T11:16:31;100467.00;;;8.80
65569;BMP180;52211;50.154;8.682;2023-12-07T11:18:59;100454.00;;;8.80
65569;BMP180;52211;50.154;8.682;2023-12-07T11:21:26;100454.00;;;8.90
65569;BMP180;52211;50.154;8.682;2023-12-07T11:24:00;100448.00;;;8.90
65569;BMP180;52211;50.154;8.682;2023-12-07T11:26:30;100445.00;;;8.90
65569;BMP180;52211;50.154;8.682;2023-12-07T11:28:57;100440.00;;;8.90
65569;BMP180;52211;50.154;8.682;2023-12-07T11:31:27;100439.00;;;9.00
65569;BMP180;52211;50.154;8.682;2023-12-07T11:33:56;100442.00;;;9.00
65569;BMP180;52211;50.154;8.682;2023-12-07T11:36:24;100425.00;;;9.00
65569;BMP180;52211;50.154;8.682;2023-12-07T11:41:34;100423.00;;;9.00
65569;BMP180;52211;50.154;8.682;2023-12-07T11:44:01;100426.00;;;9.00
65569;BMP180;52211;50.154;8.682;2023-12-07T11:46:30;100418.00;;;9.10
65569;BMP180;52211;50.154;8.682;2023-12-07T11:49:02;100414.00;;;9.10
65569;BMP180;52211;50.154;8.682;2023-12-07T11:51:29;100411.00;;;9.10
65569;BMP180;52211;50.154;8.682;2023-12-07T11:54:00;100415.00;;;9.20
65569;BMP180;52211;50.154;8.682;2023-12-07T11:56:27;100404.00;;;9.20
65569;BMP180;52211;50.154;8.682;2023-12-07T11:59:06;100395.00;;;9.20
65569;BMP180;52211;50.154;8.682;2023-12-07T12:01:38;100389.00;;;9.20
65569;BMP180;52211;50.154;8.682;2023-12-07T12:04:07;100393.00;;;9.30
65569;BMP180;52211;50.154;8.682;2023-12-07T12:06:39;100384.00;;;9.30
65569;BMP180;52211;50.154;8.682;2023-12-07T12:09:12;100384.00;;;9.30
65569;BMP180;52211;50.154;8.682;2023-12-07T12:11:46;100382.00;;;9.30
65569;BMP180;52211;50.154;8.682;2023-12-07T12:14:17;100378.00;;;9.30
65569;BMP180;52211;50.154;8.682;2023-12-07T12:16:46;100370.00;;;9.40
65569;BMP180;52211;50.154;8.682;2023-12-07T12:19:16;100364.00;;;9.40
65569;BMP180;52211;50.154;8.682;2023-12-07T12:21:58;100366.00;;;9.50
65569;BMP180;52211;50.154;8.682;2023-12-07T12:24:29;100363.00;;;9.50
65569;BMP180;52211;50.154;8.682;2023-12-07T12:26:58;100356.00;;;9.50
65569;BMP180;52211;50.154;8.682;2023-12-07T12:29:27;100349.00;;;9.50
65569;BMP180;52211;50.154;8.682;2023-12-07T12:32:04;100362.00;;;9.50
65569;BMP180;52211;50.154;8.682;2023-12-07T12:34:35;100353.00;;;9.50
65569;BMP180;52211;50.154;8.682;2023-12-07T12:37:05;100350.00;;;9.50
65569;BMP180;52211;50.154;8.682;2023-12-07T12:39:34;100349.00;;;9.50
65569;BMP180;52211;50.154;8.682;2023-12-07T12:42:03;100349.00;;;9.50
65569;BMP180;52211;50.154;8.682;2023-12-07T12:44:31;100349.00;;;9.50
65569;BMP180;52211;50.154;8.682;2023-12-07T12:47:08;100352.00;;;9.50
65569;BMP180;52211;50.154;8.682;2023-12-07T12:49:37;100361.00;;;9.50
65569;BMP180;52211;50.154;8.682;2023-12-07T12:52:10;100357.00;;;9.50
65569;BMP180;52211;50.154;8.682;2023-12-07T12:54:39;100354.00;;;9.50
65569;BMP180;52211;50.154;8.682;2023-12-07T12:57:09;100359.00;;;9.50
65569;BMP180;52211;50.154;8.682;2023-12-07T12:59:36;100346.00;;;9.50
65569;BMP180;52211;50.154;8.682;2023-12-07T13:02:11;100348.00;;;9.50
65569;BMP180;52211;50.154;8.682;2023-12-07T13:04:38;100341.00;;;9.50
65569;BMP180;52211;50.154;8.682;2023-12-07T13:07:09;100349.00;;;9.50
65569;BMP180;52211;50.154;8.682;2023-12-07T13:09:36;100350.00;;;9.50
65569;BMP180;52211;50.154;8.682;2023-12-07T13:12:03;100342.00;;;9.50
65569;BMP180;52211;50.154;8.682;2023-12-07T13:14:38;100340.00;;;9.40
65569;BMP180;52211;50.154;8.682;2023-12-07T13:17:15;100331.00;;;9.40
65569;BMP180;52211;50.154;8.682;2023-12-07T13:19:44;100332.00;;;9.40
65569;BMP180;52211;50.154;8.682;2023-12-07T13:22:11;100333.00;;;9.40
65569;BMP180;52211;50.154;8.682;2023-12-07T13:24:38;100320.00;;;9.40
65569;BMP180;52211;50.154;8.682;2023-12-07T13:27:05;100312.00;;;9.40
65569;BMP180;52211;50.154;8.682;2023-12-07T13:29:32;100318.00;;;9.40
65569;BMP180;52211;50.154;8.682;2023-12-07T13:32:04;100310.00;;;9.40
65569;BMP180;52211;50.154;8.682;2023-12-07T13:34:32;100307.00;;;9.40
65569;BMP180;52211;50.154;8.682;2023-12-07T13:37:02;100304.00;;;9.40
65569;BMP180;52211;50.154;8.682;2023-12-07T13:39:31;100305.00;;;9.40
65569;BMP180;52211;50.154;8.682;2023-12-07T13:42:00;100294.00;;;9.40
65569;BMP180;52211;50.154;8.682;2023-12-07T13:44:33;100308.00;;;9.40
65569;BMP180;52211;50.154;8.682;2023-12-07T13:47:00;100302.00;;;9.40
65569;BMP180;52211;50.154;8.682;2023-12-07T13:49:30;100311.00;;;9.40
65569;BMP180;52211;50.154;8.682;2023-12-07T13:52:06;100311.00;;;9.40
65569;BMP180;52211;50.154;8.682;2023-12-07T13:54:39;100310.00;;;9.40
65569;BMP180;52211;50.154;8.682;2023-12-07T13:57:23;100309.00;;;9.40
65569;BMP180;52211;50.154;8.682;2023-12-07T13:59:54;100305.00;;;9.40
65569;BMP180;52211;50.154;8.682;2023-12-07T14:02:22;100301.00;;;9.40
65569;BMP180;52211;50.154;8.682;2023-12-07T14:04:50;100298.00;;;9.50
65569;BMP180;52211;50.154;8.682;2023-12-07T14:07:22;100298.00;;;9.50
65569;BMP180;52211;50.154;8.682;2023-12-07T14:09:53;100292.00;;;9.40
65569;BMP180;52211;50.154;8.682;2023-12-07T14:12:30;100283.00;;;9.40
65569;BMP180;52211;50.154;8.682;2023-12-07T14:14:59;100282.00;;;9.40
65569;BMP180;52211;50.154;8.682;2023-12-07T14:17:26;100270.00;;;9.30
65569;BMP180;52211;50.154;8.682;2023-12-07T14:20:10;100279.00;;;9.30
65569;BMP180;52211;50.154;8.682;2023-12-07T14:22:58;100277.00;;;9.30
65569;BMP180;52211;50.154;8.682;2023-12-07T14:25:31;100274.00;;;9.30
65569;BMP180;52211;50.154;8.682;2023-12-07T14:27:58;100278.00;;;9.30
65569;BMP180;52211;50.154;8.682;2023-12-07T14:30:29;100269.00;;;9.30
65569;BMP180;52211;50.154;8.682;2023-12-07T14:33:00;100268.00;;;9.20
65569;BMP180;52211;50.154;8.682;2023-12-07T14:35:28;100267.00;;;9.20
65569;BMP180;52211;50.154;8.682;2023-12-07T14:37:57;100256.00;;;9.20
65569;BMP180;52211;50.154;8.682;2023-12-07T14:40:27;100265.00;;;9.20
65569;BMP180;52211;50.154;8.682;2023-12-07T14:42:56;100250.00;;;9.20
65569;BMP180;52211;50.154;8.682;2023-12-07T14:45:24;100252.00;;;9.20
65569;BMP180;52211;50.154;8.682;2023-12-07T14:47:55;100242.00;;;9.20
65569;BMP180;52211;50.154;8.682;2023-12-07T14:50:22;100240.00;;;9.20
65569;BMP180;52211;50.154;8.682;2023-12-07T14:52:49;100238.00;;;9.20
65569;BMP180;52211;50.154;8.682;2023-12-07T14:55:18;100236.00;;;9.20
65569;BMP180;52211;50.154;8.682;2023-12-07T14:57:47;100233.00;;;9.20
65569;BMP180;52211;50.154;8.682;2023-12-07T15:00:18;100237.00;;;9.20
65569;BMP180;52211;50.154;8.682;2023-12-07T15:02:45;100224.00;;;9.20
65569;BMP180;52211;50.154;8.682;2023-12-07T15:05:12;100223.00;;;9.10
65569;BMP180;52211;50.154;8.682;2023-12-07T15:07:44;100237.00;;;9.10
65569;BMP180;52211;50.154;8.682;2023-12-07T15:10:10;100227.00;;;9.10
65569;BMP180;52211;50.154;8.682;2023-12-07T15:12:40;100228.00;;;9.10
65569;BMP180;52211;50.154;8.682;2023-12-07T15:15:08;100223.00;;;9.10
65569;BMP180;52211;50.154;8.682;2023-12-07T15:17:36;100226.00;;;9.10
65569;BMP180;52211;50.154;8.682;2023-12-07T15:20:04;100228.00;;;9.10
65569;BMP180;52211;50.154;8.682;2023-12-07T15:22:35;100217.00;;;9.10
65569;BMP180;52211;50.154;8.682;2023-12-07T15:25:02;100209.00;;;9.10
65569;BMP180;52211;50.154;8.682;2023-12-07T15:27:32;100206.00;;;9.10
65569;BMP180;52211;50.154;8.682;2023-12-07T15:30:04;100198.00;;;9.10
65569;BMP180;52211;50.154;8.682;2023-12-07T15:32:37;100193.00;;;9.10
65569;BMP180;52211;50.154;8.682;2023-12-07T15:35:04;100186.00;;;9.10
65569;BMP180;52211;50.154;8.682;2023-12-07T15:37:36;100180.00;;;9.10
65569;BMP180;52211;50.154;8.682;2023-12-07T15:40:03;100188.00;;;9.00
65569;BMP180;52211;50.154;8.682;2023-12-07T15:42:31;100182.00;;;9.00
65569;BMP180;52211;50.154;8.682;2023-12-07T15:44:58;100193.00;;;9.00
65569;BMP180;52211;50.154;8.682;2023-12-07T15:47:25;100185.00;;;8.90
65569;BMP180;52211;50.154;8.682;2023-12-07T15:49:52;100184.00;;;8.90
65569;BMP180;52211;50.154;8.682;2023-12-07T15:52:22;100177.00;;;8.80
65569;BMP180;52211;50.154;8.682;2023-12-07T15:54:48;100173.00;;;8.80
65569;BMP180;52211;50.154;8.682;2023-12-07T15:57:16;100184.00;;;8.70
65569;BMP180;52211;50.154;8.682;2023-12-07T15:59:43;100189.00;;;8.70
65569;BMP180;52211;50.154;8.682;2023-12-07T16:02:13;100190.00;;;8.70
65569;BMP180;52211;50.154;8.682;2023-12-07T16:04:41;100187.00;;;8.70
65569;BMP180;52211;50.154;8.682;2023-12-07T16:07:08;100183.00;;;8.70
65569;BMP180;52211;50.154;8.682;2023-12-07T16:09:39;100184.00;;;8.70
65569;BMP180;52211;50.154;8.682;2023-12-07T16:12:10;100177.00;;;8.70
65569;BMP180;52211;50.154;8.682;2023-12-07T16:14:40;100174.00;;;8.60
65569;BMP180;52211;50.154;8.682;2023-12-07T16:17:13;100180.00;;;8.60
65569;BMP180;52211;50.154;8.682;2023-12-07T16:19:40;100176.00;;;8.60
65569;BMP180;52211;50.154;8.682;2023-12-07T16:22:07;100181.00;;;8.60
65569;BMP180;52211;50.154;8.682;2023-12-07T16:24:34;100178.00;;;8.60
65569;BMP180;52211;50.154;8.682;2023-12-07T16:27:04;100181.00;;;8.50
65569;BMP180;52211;50.154;8.682;2023-12-07T16:29:35;100186.00;;;8.50
65569;BMP180;52211;50.154;8.682;2023-12-07T16:32:05;100172.00;;;8.50
65569;BMP180;52211;50.154;8.682;2023-12-07T16:34:35;100176.00;;;8.50
65569;BMP180;52211;50.154;8.682;2023-12-07T16:37:07;100160.00;;;8.40
65569;BMP180;52211;50.154;8.682;2023-12-07T16:39:41;100167.00;;;8.40
65569;BMP180;52211;50.154;8.682;2023-12-07T16:42:11;100151.00;;;8.40
65569;BMP180;52211;50.154;8.682;2023-12-07T16:44:39;100161.00;;;8.40
65569;BMP180;52211;50.154;8.682;2023-12-07T16:47:08;100147.00;;;8.30
65569;BMP180;52211;50.154;8.682;2023-12-07T16:49:41;100156.00;;;8.30
65569;BMP180;52211;50.154;8.682;2023-12-07T16:52:16;100147.00;;;8.30
65569;BMP180;52211;50.154;8.682;2023-12-07T16:54:45;100152.00;;;8.30
65569;BMP180;52211;50.154;8.682;2023-12-07T16:57:12;100142.00;;;8.20
65569;BMP180;52211;50.154;8.682;2023-12-07T16:59:42;100148.00;;;8.10
65569;BMP180;52211;50.154;8.682;2023-12-07T17:02:11;100137.00;;;8.10
65569;BMP180;52211;50.154;8.682;2023-12-07T17:04:40;100135.00;;;8.10
65569;BMP180;52211;50.154;8.682;2023-12-07T17:07:09;100125.00;;;8.00
65569;BMP180;52211;50.154;8.682;2023-12-07T17:09:37;100126.00;;;8.00
65569;BMP180;52211;50.154;8.682;2023-12-07T17:12:06;100114.00;;;8.00
65569;BMP180;52211;50.154;8.682;2023-12-07T17:14:33;100108.00;;;8.00
65569;BMP180;52211;50.154;8.682;2023-12-07T17:17:00;100112.00;;;7.90
65569;BMP180;52211;50.154;8.682;2023-12-07T17:19:29;100113.00;;;7.90
65569;BMP180;52211;50.154;8.682;2023-12-07T17:22:13;100115.00;;;7.80
65569;BMP180;52211;50.154;8.682;2023-12-07T17:24:45;100113.00;;;7.80
65569;BMP180;52211;50.154;8.682;2023-12-07T17:27:14;100118.00;;;7.80
65569;BMP180;52211;50.154;8.682;2023-12-07T17:29:43;100112.00;;;7.70
65569;BMP180;52211;50.154;8.682;2023-12-07T17:32:10;100106.00;;;7.70
65569;BMP180;52211;50.154;8.682;2023-12-07T17:34:37;100109.00;;;7.70
65569;BMP180;52211;50.154;8.682;2023-12-07T17:37:10;100115.00;;;7.60
65569;BMP180;52211;50.154;8.682;2023-12-07T17:39:39;100111.00;;;7.60
65569;BMP180;52211;50.154;8.682;2023-12-07T17:42:11;100117.00;;;7.60
65569;BMP180;52211;50.154;8.682;2023-12-07T17:44:40;100102.00;;;7.50
65569;BMP180;52211;50.154;8.682;2023-12-07T17:47:07;100110.00;;;7.50
65569;BMP180;52211;50.154;8.682;2023-12-07T17:49:36;100103.00;;;7.40
65569;BMP180;52211;50.154;8.682;2023-12-07T17:52:05;100115.00;;;7.40
65569;BMP180;52211;50.154;8.682;2023-12-07T17:54:35;100110.00;;;7.30
65569;BMP180;52211;50.154;8.682;2023-12-07T17:57:06;100115.00;;;7.30
65569;BMP180;52211;50.154;8.682;2023-12-07T17:59:33;100104.00;;;7.30
65569;BMP180;52211;50.154;8.682;2023-12-07T18:02:06;100096.00;;;7.30
65569;BMP180;52211;50.154;8.682;2023-12-07T18:04:34;100096.00;;;7.30
65569;BMP180;52211;50.154;8.682;2023-12-07T18:07:02;100103.00;;;7.20
65569;BMP180;52211;50.154;8.682;2023-12-07T18:09:32;100097.00;;;7.30
65569;BMP180;52211;50.154;8.682;2023-12-07T18:11:58;100097.00;;;7.20
65569;BMP180;52211;50.154;8.682;2023-12-07T18:14:29;100106.00;;;7.20
65569;BMP180;52211;50.154;8.682;2023-12-07T18:17:01;100097.00;;;7.30
65569;BMP180;52211;50.154;8.682;2023-12-07T18:19:30;100101.00;;;7.30
65569;BMP180;52211;50.154;8.682;2023-12-07T18:22:00;100095.00;;;7.30
65569;BMP180;52211;50.154;8.682;2023-12-07T18:24:30;100091.00;;;7.30
65569;BMP180;52211;50.154;8.682;2023-12-07T18:26:59;100089.00;;;7.30
65569;BMP180;52211;50.154;8.682;2023-12-07T18:29:30;100092.00;;;7.30
65569;BMP180;52211;50.154;8.682;2023-12-07T18:31:59;100080.00;;;7.30
65569;BMP180;52211;50.154;8.682;2023-12-07T18:34:27;100077.00;;;7.30
65569;BMP180;52211;50.154;8.682;2023-12-07T18:36:58;100082.00;;;7.30
65569;BMP180;52211;50.154;8.682;2023-12-07T18:39:30;100075.00;;;7.20
65569;BMP180;52211;50.154;8.682;2023-12-07T18:42:00;100067.00;;;7.20
65569;BMP180;52211;50.154;8.682;2023-12-07T18:44:29;100062.00;;;7.20
65569;BMP180;52211;50.154;8.682;2023-12-07T18:46:56;100049.00;;;7.20
65569;BMP180;52211;50.154;8.682;2023-12-07T18:49:25;100052.00;;;7.20
65569;BMP180;52211;50.154;8.682;2023-12-07T18:51:52;100043.00;;;7.20
65569;BMP180;52211;50.154;8.682;2023-12-07T18:54:19;100041.00;;;7.10
65569;BMP180;52211;50.154;8.682;2023-12-07T18:56:49;100048.00;;;7.10
65569;BMP180;52211;50.154;8.682;2023-12-07T18:59:16;100048.00;;;7.10
65569;BMP180;52211;50.154;8.682;2023-12-07T19:01:45;100036.00;;;7.10
65569;BMP180;52211;50.154;8.682;2023-12-07T19:04:16;100046.00;;;7.00
65569;BMP180;52211;50.154;8.682;2023-12-07T19:06:46;100046.00;;;7.00
65569;BMP180;52211;50.154;8.682;2023-12-07T19:09:15;100042.00;;;7.00
65569;BMP180;52211;50.154;8.682;2023-12-07T19:11:49;100036.00;;;7.00
65569;BMP180;52211;50.154;8.682;2023-12-07T19:14:19;100026.00;;;6.90
65569;BMP180;52211;50.154;8.682;2023-12-07T19:16:48;100023.00;;;6.90
65569;BMP180;52211;50.154;8.682;2023-12-07T19:19:17;100025.00;;;6.90
65569;BMP180;52211;50.154;8.682;2023-12-07T19:21:51;100023.00;;;6.90
65569;BMP180;52211;50.154;8.682;2023-12-07T19:24:20;100021.00;;;6.90
65569;BMP180;52211;50.154;8.682;2023-12-07T19:26:50;100031.00;;;6.90
65569;BMP180;52211;50.154;8.682;2023-12-07T19:29:17;100031.00;;;6.90
65569;BMP180;52211;50.154;8.682;2023-12-07T19:31:46;100031.00;;;6.90
65569;BMP180;52211;50.154;8.682;2023-12-07T19:34:13;100021.00;;;6.80
65569;BMP180;52211;50.154;8.682;2023-12-07T19:36:42;100021.00;;;6.80
65569;BMP180;52211;50.154;8.682;2023-12-07T19:39:14;100032.00;;;6.80
65569;BMP180;52211;50.154;8.682;2023-12-07T19:41:49;100021.00;;;6.70
65569;BMP180;52211;50.154;8.682;2023-12-07T19:44:18;100014.00;;;6.70
65569;BMP180;52211;50.154;8.682;2023-12-07T19:46:50;100017.00;;;6.60
